createdAt,value
2018-04-13T00:00:06.624Z,99.99
2018-04-13T00:01:06.642Z,99.99
2018-04-13T00:02:06.656Z,99.99
2018-04-13T00:03:06.674Z,99.99
2018-04-13T00:04:06.689Z,99.99
2018-04-13T00:05:06.707Z,99.99
2018-04-13T00:06:06.721Z,99.99
2018-04-13T00:07:06.737Z,99.99
2018-04-13T00:08:06.752Z,99.99
2018-04-13T00:09:06.768Z,99.99
2018-04-13T00:10:06.789Z,99.99
2018-04-13T00:11:06.805Z,99.99
2018-04-13T00:12:06.816Z,99.99
2018-04-13T00:13:06.833Z,99.99
2018-04-13T00:14:06.856Z,99.99
2018-04-13T00:15:06.867Z,99.99
2018-04-13T00:16:06.884Z,99.99
2018-04-13T00:17:06.900Z,99.99
2018-04-13T00:18:06.914Z,99.99
2018-04-13T00:19:06.931Z,99.99
2018-04-13T00:20:06.947Z,99.99
2018-04-13T00:21:06.967Z,99.99
2018-04-13T00:22:06.980Z,99.99
2018-04-13T00:23:06.997Z,99.99
2018-04-13T00:24:07.013Z,99.99
2018-04-13T00:25:07.031Z,99.99
2018-04-13T00:26:07.046Z,99.99
2018-04-13T00:27:07.062Z,99.99
2018-04-13T00:28:07.078Z,99.99
2018-04-13T00:29:07.096Z,99.99
2018-04-13T00:30:07.112Z,99.99
2018-04-13T00:31:07.127Z,99.99
2018-04-13T00:32:07.150Z,99.99
2018-04-13T00:33:07.160Z,99.99
2018-04-13T00:34:07.177Z,99.99
2018-04-13T00:35:07.194Z,99.99
2018-04-13T00:36:07.209Z,99.99
2018-04-13T00:37:07.225Z,99.99
2018-04-13T00:38:07.242Z,99.99
2018-04-13T00:39:07.260Z,99.99
2018-04-13T00:40:07.277Z,99.99
2018-04-13T00:41:07.290Z,99.99
2018-04-13T00:42:07.310Z,99.99
2018-04-13T00:43:07.321Z,99.99
2018-04-13T00:44:07.340Z,99.99
2018-04-13T00:45:07.355Z,99.99
2018-04-13T00:46:07.371Z,99.99
2018-04-13T00:47:07.387Z,99.99
2018-04-13T00:48:07.405Z,99.99
2018-04-13T00:49:07.419Z,99.99
2018-04-13T00:50:07.437Z,99.99
2018-04-13T00:51:07.452Z,99.99
2018-04-13T00:52:07.470Z,99.99
2018-04-13T00:53:07.484Z,99.99
2018-04-13T00:54:07.502Z,99.99
2018-04-13T00:55:07.520Z,99.99
2018-04-13T00:56:07.554Z,99.99
2018-04-13T00:57:07.547Z,99.99
2018-04-13T00:58:07.566Z,99.99
2018-04-13T00:59:07.583Z,99.99
2018-04-13T01:00:07.601Z,99.99
2018-04-13T01:01:07.614Z,99.99
2018-04-13T01:02:07.629Z,99.99
2018-04-13T01:03:07.647Z,99.99
2018-04-13T01:04:07.665Z,99.99
2018-04-13T01:05:07.677Z,99.99
2018-04-13T01:06:07.695Z,99.99
2018-04-13T01:07:07.724Z,99.99
2018-04-13T01:08:07.728Z,99.99
2018-04-13T01:09:07.746Z,99.99
2018-04-13T01:10:07.759Z,99.99
2018-04-13T01:11:07.779Z,99.99
2018-04-13T01:12:07.794Z,99.99
2018-04-13T01:13:07.807Z,99.99
2018-04-13T01:14:07.824Z,99.99
2018-04-13T01:15:07.841Z,99.99
2018-04-13T01:16:07.864Z,99.99
2018-04-13T01:17:07.879Z,99.99
2018-04-13T01:18:07.889Z,99.99
2018-04-13T01:19:07.908Z,99.99
2018-04-13T01:20:07.922Z,99.99
2018-04-13T01:21:07.936Z,99.99
2018-04-13T01:22:07.952Z,99.99
2018-04-13T01:23:07.969Z,99.99
2018-04-13T01:24:07.988Z,99.99
2018-04-13T01:25:08.007Z,99.99
2018-04-13T01:26:08.023Z,99.99
2018-04-13T01:27:08.037Z,99.99
2018-04-13T01:28:08.053Z,99.99
2018-04-13T01:29:08.068Z,99.99
2018-04-13T01:30:08.084Z,99.99
2018-04-13T01:31:08.100Z,99.99
2018-04-13T01:32:08.116Z,99.99
2018-04-13T01:33:08.138Z,99.99
2018-04-13T01:34:08.148Z,99.99
2018-04-13T01:35:08.168Z,99.99
2018-04-13T01:36:08.181Z,99.99
2018-04-13T01:37:08.198Z,99.99
2018-04-13T01:38:08.221Z,99.99
2018-04-13T01:39:08.231Z,99.99
2018-04-13T01:40:08.246Z,99.99
2018-04-13T01:41:08.263Z,99.99
2018-04-13T01:42:08.277Z,99.99
2018-04-13T01:43:08.294Z,99.99
2018-04-13T01:44:08.312Z,99.99
2018-04-13T01:45:08.326Z,99.99
2018-04-13T01:46:08.340Z,99.99
2018-04-13T01:47:08.360Z,99.99
2018-04-13T01:48:08.374Z,99.99
2018-04-13T01:49:08.389Z,99.99
2018-04-13T01:50:08.406Z,99.99
2018-04-13T01:51:08.429Z,99.99
2018-04-13T01:52:08.440Z,99.99
2018-04-13T01:53:08.454Z,99.99
2018-04-13T01:54:08.469Z,99.99
2018-04-13T01:55:08.487Z,99.99
2018-04-13T01:56:08.502Z,99.99
2018-04-13T01:57:08.518Z,99.99
2018-04-13T01:58:08.540Z,99.99
2018-04-13T01:59:08.555Z,99.99
2018-04-13T02:00:08.568Z,99.99
2018-04-13T02:01:08.585Z,99.99
2018-04-13T02:02:08.601Z,99.99
2018-04-13T02:03:08.619Z,99.99
2018-04-13T02:04:08.652Z,99.99
2018-04-13T02:05:08.675Z,99.99
2018-04-13T02:06:08.663Z,99.99
2018-04-13T02:07:08.679Z,99.99
2018-04-13T02:08:08.699Z,99.99
2018-04-13T02:09:08.711Z,99.99
2018-04-13T02:10:08.726Z,99.99
2018-04-13T02:11:08.742Z,99.99
2018-04-13T02:12:08.760Z,99.99
2018-04-13T02:13:08.779Z,99.99
2018-04-13T02:14:08.790Z,99.99
2018-04-13T02:15:08.808Z,99.99
2018-04-13T02:16:08.825Z,99.99
2018-04-13T02:17:08.839Z,99.99
2018-04-13T02:18:08.860Z,99.99
2018-04-13T02:19:08.870Z,99.99
2018-04-13T02:20:08.889Z,99.99
2018-04-13T02:21:08.903Z,99.99
2018-04-13T02:22:08.918Z,99.99
2018-04-13T02:23:08.935Z,99.99
2018-04-13T02:24:08.952Z,99.99
2018-04-13T02:25:08.966Z,99.99
2018-04-13T02:26:08.983Z,99.99
2018-04-13T02:27:08.999Z,99.99
2018-04-13T02:28:09.019Z,99.99
2018-04-13T02:29:09.031Z,99.99
2018-04-13T02:30:09.060Z,99.99
2018-04-13T02:31:09.434Z,99.99
2018-04-13T02:32:09.079Z,99.99
2018-04-13T02:33:09.096Z,99.99
2018-04-13T02:34:09.109Z,99.99
2018-04-13T02:35:09.126Z,99.99
2018-04-13T02:36:09.144Z,99.99
2018-04-13T02:37:09.160Z,99.99
2018-04-13T02:38:09.172Z,99.99
2018-04-13T02:39:09.190Z,99.99
2018-04-13T02:40:09.209Z,99.99
2018-04-13T02:41:09.222Z,99.99
2018-04-13T02:42:09.238Z,99.99
2018-04-13T02:43:09.254Z,99.99
2018-04-13T02:44:09.268Z,99.99
2018-04-13T02:45:09.286Z,99.99
2018-04-13T02:46:09.302Z,99.99
2018-04-13T02:47:09.319Z,99.99
2018-04-13T02:48:09.336Z,99.99
2018-04-13T02:49:09.349Z,99.99
2018-04-13T02:50:09.364Z,99.99
2018-04-13T02:51:09.380Z,99.99
2018-04-13T02:52:09.395Z,99.99
2018-04-13T02:53:09.418Z,99.99
2018-04-13T02:54:09.427Z,99.99
2018-04-13T02:55:09.443Z,99.99
2018-04-13T02:56:09.458Z,99.99
2018-04-13T02:57:09.474Z,99.99
2018-04-13T02:58:09.490Z,99.99
2018-04-13T02:59:09.506Z,99.99
2018-04-13T03:00:09.522Z,99.99
2018-04-13T03:01:09.537Z,99.99
2018-04-13T03:02:09.553Z,99.99
2018-04-13T03:03:09.571Z,99.99
2018-04-13T03:04:09.585Z,99.99
2018-04-13T03:05:09.600Z,99.99
2018-04-13T03:06:09.617Z,99.99
2018-04-13T03:07:09.633Z,99.99
2018-04-13T03:08:09.647Z,99.99
2018-04-13T03:09:09.663Z,99.99
2018-04-13T03:10:09.680Z,99.99
2018-04-13T03:11:09.697Z,99.99
2018-04-13T03:12:09.713Z,99.99
2018-04-13T03:13:09.730Z,99.99
2018-04-13T03:14:09.744Z,99.99
2018-04-13T03:15:09.762Z,99.99
2018-04-13T03:16:09.776Z,99.99
2018-04-13T03:17:09.792Z,99.99
2018-04-13T03:18:09.809Z,99.99
2018-04-13T03:19:09.826Z,99.99
2018-04-13T03:20:09.839Z,99.99
2018-04-13T03:21:09.858Z,99.99
2018-04-13T03:22:09.883Z,99.99
2018-04-13T03:23:09.987Z,99.99
2018-04-13T03:24:09.905Z,99.99
2018-04-13T03:25:09.917Z,99.99
2018-04-13T03:26:09.932Z,99.99
2018-04-13T03:27:09.951Z,99.99
2018-04-13T03:28:09.966Z,99.99
2018-04-13T03:29:09.981Z,99.99
2018-04-13T03:30:09.997Z,99.99
2018-04-13T03:31:10.027Z,99.99
2018-04-13T03:32:10.029Z,99.99
2018-04-13T03:33:10.049Z,99.99
2018-04-13T03:34:10.061Z,99.99
2018-04-13T03:35:10.074Z,99.99
2018-04-13T03:36:10.092Z,99.99
2018-04-13T03:37:10.700Z,99.99
2018-04-13T03:38:10.368Z,99.99
2018-04-13T03:39:10.238Z,99.99
2018-04-13T03:40:10.159Z,99.99
2018-04-13T03:41:10.168Z,99.99
2018-04-13T03:42:10.242Z,99.99
2018-04-13T03:43:10.199Z,99.99
2018-04-13T03:44:10.218Z,99.99
2018-04-13T03:45:10.228Z,99.99
2018-04-13T03:46:10.240Z,99.99
2018-04-13T03:47:10.307Z,99.99
2018-04-13T03:48:10.272Z,99.99
2018-04-13T03:49:10.287Z,99.99
2018-04-13T03:50:10.308Z,99.99
2018-04-13T03:51:10.335Z,99.99
2018-04-13T03:52:10.335Z,99.99
2018-04-13T03:53:10.350Z,99.99
2018-04-13T03:54:10.367Z,99.99
2018-04-13T03:55:10.385Z,99.99
2018-04-13T03:56:10.398Z,99.99
2018-04-13T03:57:10.412Z,99.99
2018-04-13T03:58:10.429Z,99.99
2018-04-13T03:59:10.443Z,99.99
2018-04-13T04:00:10.459Z,99.99
2018-04-13T04:01:10.473Z,99.99
2018-04-13T04:02:10.541Z,99.99
2018-04-13T04:03:10.506Z,99.99
2018-04-13T04:04:10.523Z,99.99
2018-04-13T04:05:10.538Z,99.99
2018-04-13T04:06:10.558Z,99.99
2018-04-13T04:07:10.569Z,99.99
2018-04-13T04:08:10.588Z,99.99
2018-04-13T04:09:10.607Z,99.99
2018-04-13T04:10:10.621Z,99.99
2018-04-13T04:11:10.640Z,99.99
2018-04-13T04:12:10.648Z,99.99
2018-04-13T04:13:10.665Z,99.99
2018-04-13T04:14:10.679Z,99.99
2018-04-13T04:15:10.698Z,99.99
2018-04-13T04:16:10.710Z,99.99
2018-04-13T04:17:10.725Z,99.99
2018-04-13T04:18:10.740Z,99.99
2018-04-13T04:19:10.758Z,99.99
2018-04-13T04:20:10.778Z,99.99
2018-04-13T04:21:10.789Z,99.99
2018-04-13T04:22:10.805Z,99.99
2018-04-13T04:23:10.825Z,99.99
2018-04-13T04:24:10.880Z,99.99
2018-04-13T04:25:10.856Z,99.99
2018-04-13T04:26:10.867Z,99.99
2018-04-13T04:27:10.882Z,99.99
2018-04-13T04:28:10.902Z,99.99
2018-04-13T04:29:10.914Z,99.99
2018-04-13T04:30:10.928Z,99.99
2018-04-13T04:31:10.949Z,99.99
2018-04-13T04:32:10.962Z,99.99
2018-04-13T04:33:10.977Z,99.99
2018-04-13T04:34:10.993Z,99.99
2018-04-13T04:35:11.007Z,99.99
2018-04-13T04:36:11.028Z,99.99
2018-04-13T04:37:11.041Z,99.99
2018-04-13T04:38:11.054Z,99.99
2018-04-13T04:39:11.070Z,99.99
2018-04-13T04:40:11.086Z,99.99
2018-04-13T04:41:11.101Z,99.99
2018-04-13T04:42:11.121Z,99.99
2018-04-13T04:43:11.133Z,99.99
2018-04-13T04:44:11.148Z,99.99
2018-04-13T04:45:11.162Z,99.99
2018-04-13T04:46:11.184Z,99.99
2018-04-13T04:47:11.202Z,99.99
2018-04-13T04:48:11.213Z,99.99
2018-04-13T04:49:11.233Z,99.99
2018-04-13T04:50:11.242Z,99.99
2018-04-13T04:51:11.258Z,99.99
2018-04-13T04:52:11.276Z,99.99
2018-04-13T04:53:11.294Z,99.99
2018-04-13T04:54:11.309Z,99.99
2018-04-13T04:55:11.322Z,99.99
2018-04-13T04:56:11.339Z,99.99
2018-04-13T04:57:11.353Z,99.99
2018-04-13T04:58:11.370Z,99.99
2018-04-13T04:59:11.390Z,99.99
2018-04-13T05:00:11.403Z,99.99
2018-04-13T05:01:11.416Z,99.99
2018-04-13T05:02:11.438Z,99.99
2018-04-13T05:03:11.454Z,99.99
2018-04-13T05:04:11.464Z,99.99
2018-04-13T05:05:11.477Z,99.99
2018-04-13T05:06:11.503Z,99.99
2018-04-13T05:07:11.509Z,99.99
2018-04-13T05:08:11.526Z,99.99
2018-04-13T05:09:11.540Z,99.99
2018-04-13T05:10:11.557Z,99.99
2018-04-13T05:11:11.586Z,99.99
2018-04-13T05:12:11.590Z,99.99
2018-04-13T05:13:11.610Z,99.99
2018-04-13T05:14:11.622Z,99.99
2018-04-13T05:15:11.637Z,99.99
2018-04-13T05:16:11.656Z,99.99
2018-04-13T05:17:11.680Z,99.99
2018-04-13T05:18:11.690Z,99.99
2018-04-13T05:19:11.702Z,99.99
2018-04-13T05:20:11.716Z,99.99
2018-04-13T05:21:11.787Z,99.99
2018-04-13T05:22:11.755Z,99.99
2018-04-13T05:23:11.777Z,99.99
2018-04-13T05:24:11.798Z,99.99
2018-04-13T05:25:11.795Z,99.99
2018-04-13T05:26:11.810Z,99.99
2018-04-13T05:27:11.826Z,99.99
2018-04-13T05:28:11.843Z,99.99
2018-04-13T05:29:11.883Z,99.99
2018-04-13T05:30:11.876Z,99.99
2018-04-13T05:31:11.891Z,99.99
2018-04-13T05:32:11.906Z,99.99
2018-04-13T05:33:11.925Z,99.99
2018-04-13T05:34:11.937Z,99.99
2018-04-13T05:35:12.044Z,99.99
2018-04-13T05:36:11.973Z,99.99
2018-04-13T05:37:11.984Z,99.99
2018-04-13T05:38:12.001Z,99.99
2018-04-13T05:39:12.018Z,99.99
2018-04-13T05:40:12.033Z,99.99
2018-04-13T05:41:12.048Z,99.99
2018-04-13T05:42:12.070Z,99.99
2018-04-13T05:43:12.085Z,99.99
2018-04-13T05:44:12.097Z,99.99
2018-04-13T05:45:12.110Z,99.99
2018-04-13T05:46:12.127Z,99.99
2018-04-13T05:47:12.144Z,99.99
2018-04-13T05:48:12.160Z,99.99
2018-04-13T05:49:12.181Z,99.99
2018-04-13T05:50:12.190Z,99.99
2018-04-13T05:51:12.208Z,99.99
2018-04-13T05:52:12.222Z,99.99
2018-04-13T05:53:12.237Z,99.99
2018-04-13T05:54:12.253Z,99.99
2018-04-13T05:55:12.269Z,99.99
2018-04-13T05:56:12.285Z,99.99
2018-04-13T05:57:12.304Z,99.99
2018-04-13T05:58:12.317Z,99.99
2018-04-13T05:59:12.344Z,99.99
2018-04-13T06:00:12.371Z,99.99
2018-04-13T06:01:12.364Z,99.99
2018-04-13T06:02:12.380Z,99.99
2018-04-13T06:03:12.396Z,99.99
2018-04-13T06:04:12.413Z,99.99
2018-04-13T06:05:12.427Z,99.99
2018-04-13T06:06:12.444Z,99.99
2018-04-13T06:07:12.460Z,99.99
2018-04-13T06:08:12.475Z,99.99
2018-04-13T06:09:12.490Z,99.99
2018-04-13T06:10:12.506Z,99.99
2018-04-13T06:11:12.529Z,99.99
2018-04-13T06:12:12.539Z,99.99
2018-04-13T06:13:12.553Z,99.99
2018-04-13T06:14:12.573Z,99.99
2018-04-13T06:15:13.083Z,99.99
2018-04-13T06:16:12.603Z,99.99
2018-04-13T06:17:12.623Z,99.99
2018-04-13T06:18:12.664Z,99.99
2018-04-13T06:19:12.651Z,99.99
2018-04-13T06:20:12.674Z,99.99
2018-04-13T06:21:12.686Z,99.99
2018-04-13T06:22:12.702Z,99.99
2018-04-13T06:23:12.718Z,99.99
2018-04-13T06:24:12.738Z,99.99
2018-04-13T06:25:12.746Z,99.99
2018-04-13T06:26:12.763Z,99.99
2018-04-13T06:27:12.782Z,99.99
2018-04-13T06:28:12.797Z,99.85
2018-04-13T06:29:12.811Z,99.76
2018-04-13T06:30:12.870Z,98.61
2018-04-13T06:31:12.851Z,98.33
2018-04-13T06:32:12.864Z,98.13
2018-04-13T06:33:12.880Z,97.66
2018-04-13T06:34:12.893Z,97.94
2018-04-13T06:35:12.913Z,97.94
2018-04-13T06:36:12.929Z,97.42
2018-04-13T06:37:12.996Z,96.37
2018-04-13T06:38:12.973Z,95.98
2018-04-13T06:39:12.975Z,96.27
2018-04-13T06:40:12.992Z,96.08
2018-04-13T06:41:13.005Z,95.98
2018-04-13T06:42:13.399Z,96.56
2018-04-13T06:43:13.041Z,96.56
2018-04-13T06:44:13.054Z,96.75
2018-04-13T06:45:13.071Z,96.66
2018-04-13T06:46:13.089Z,96.75
2018-04-13T06:47:13.104Z,95.89
2018-04-13T06:48:13.120Z,96.03
2018-04-13T06:49:13.186Z,96.47
2018-04-13T06:50:13.304Z,96.42
2018-04-13T06:51:13.272Z,96.51
2018-04-13T06:52:13.181Z,96.56
2018-04-13T06:53:13.208Z,96.37
2018-04-13T06:54:13.214Z,95.84
2018-04-13T06:55:13.229Z,96.37
2018-04-13T06:56:13.246Z,96.75
2018-04-13T06:57:13.262Z,96.84
2018-04-13T06:58:13.278Z,96.18
2018-04-13T06:59:13.354Z,96.56
2018-04-13T07:00:13.312Z,96.51
2018-04-13T07:01:13.350Z,96.18
2018-04-13T07:02:13.341Z,96.08
2018-04-13T07:03:13.363Z,95.70
2018-04-13T07:04:13.376Z,95.32
2018-04-13T07:05:13.392Z,95.41
2018-04-13T07:06:13.415Z,94.46
2018-04-13T07:07:13.429Z,94.74
2018-04-13T07:08:13.437Z,94.65
2018-04-13T07:09:13.485Z,94.36
2018-04-13T07:10:13.491Z,94.07
2018-04-13T07:11:13.491Z,94.55
2018-04-13T07:12:13.505Z,94.74
2018-04-13T07:13:13.521Z,94.36
2018-04-13T07:14:13.769Z,94.26
2018-04-13T07:15:13.785Z,93.60
2018-04-13T07:16:13.691Z,93.55
2018-04-13T07:17:13.639Z,92.49
2018-04-13T07:18:13.601Z,92.02
2018-04-13T07:19:13.632Z,91.53
2018-04-13T07:20:13.637Z,91.53
2018-04-13T07:21:13.651Z,91.73
2018-04-13T07:22:13.675Z,91.44
2018-04-13T07:23:13.682Z,91.53
2018-04-13T07:24:13.909Z,91.06
2018-04-13T07:25:13.719Z,90.48
2018-04-13T07:26:13.754Z,91.44
2018-04-13T07:27:13.753Z,91.25
2018-04-13T07:28:13.764Z,91.06
2018-04-13T07:29:13.782Z,90.58
2018-04-13T07:30:13.808Z,90.67
2018-04-13T07:31:13.817Z,90.87
2018-04-13T07:32:13.833Z,91.06
2018-04-13T07:33:13.850Z,90.87
2018-04-13T07:34:13.868Z,90.48
2018-04-13T07:35:13.882Z,90.58
2018-04-13T07:36:13.920Z,90.01
2018-04-13T07:37:13.928Z,90.58
2018-04-13T07:38:13.947Z,90.48
2018-04-13T07:39:13.945Z,90.39
2018-04-13T07:40:13.961Z,90.20
2018-04-13T07:41:13.985Z,90.39
2018-04-13T07:42:15.101Z,89.81
2018-04-13T07:43:14.027Z,90.10
2018-04-13T07:44:14.054Z,90.39
2018-04-13T07:45:14.045Z,90.48
2018-04-13T07:46:14.065Z,90.39
2018-04-13T07:47:14.086Z,91.06
2018-04-13T07:48:14.103Z,90.48
2018-04-13T07:49:14.110Z,90.58
2018-04-13T07:50:14.293Z,90.20
2018-04-13T07:51:14.142Z,90.48
2018-04-13T07:52:14.158Z,91.16
2018-04-13T07:53:14.179Z,90.67
2018-04-13T07:54:14.190Z,90.01
2018-04-13T07:55:14.208Z,89.81
2018-04-13T07:56:14.231Z,90.20
2018-04-13T07:57:14.310Z,90.30
2018-04-13T07:58:14.252Z,89.81
2018-04-13T07:59:14.280Z,90.01
2018-04-13T08:00:14.294Z,90.20
2018-04-13T08:01:14.565Z,89.81
2018-04-13T08:02:14.321Z,89.62
2018-04-13T08:03:14.344Z,89.62
2018-04-13T08:04:14.350Z,89.38
2018-04-13T08:05:14.371Z,89.53
2018-04-13T08:06:14.386Z,89.95
2018-04-13T08:07:14.410Z,89.58
2018-04-13T08:08:14.417Z,90.05
2018-04-13T08:09:14.446Z,89.29
2018-04-13T08:10:14.703Z,88.71
2018-04-13T08:11:14.476Z,88.13
2018-04-13T08:12:14.487Z,88.33
2018-04-13T08:13:14.501Z,87.85
2018-04-13T08:14:14.516Z,88.33
2018-04-13T08:15:14.535Z,88.23
2018-04-13T08:16:14.554Z,87.70
2018-04-13T08:17:14.563Z,87.90
2018-04-13T08:18:14.613Z,87.70
2018-04-13T08:19:14.602Z,87.13
2018-04-13T08:20:14.614Z,87.18
2018-04-13T08:21:14.636Z,87.41
2018-04-13T08:22:14.660Z,86.84
2018-04-13T08:23:14.664Z,87.37
2018-04-13T08:24:14.687Z,88.23
2018-04-13T08:25:14.871Z,88.28
2018-04-13T08:26:14.715Z,87.51
2018-04-13T08:27:14.738Z,88.28
2018-04-13T08:28:14.751Z,88.37
2018-04-13T08:29:14.819Z,88.37
2018-04-13T08:30:14.779Z,86.94
2018-04-13T08:31:14.812Z,86.84
2018-04-13T08:32:14.818Z,86.94
2018-04-13T08:33:14.834Z,86.84
2018-04-13T08:34:14.845Z,86.74
2018-04-13T08:35:14.876Z,86.69
2018-04-13T08:36:14.884Z,86.88
2018-04-13T08:37:14.902Z,85.88
2018-04-13T08:38:15.062Z,86.02
2018-04-13T08:39:14.932Z,85.88
2018-04-13T08:40:14.950Z,86.21
2018-04-13T08:41:14.965Z,86.17
2018-04-13T08:42:14.984Z,85.50
2018-04-13T08:43:15.054Z,85.69
2018-04-13T08:44:15.043Z,85.69
2018-04-13T08:45:15.033Z,85.79
2018-04-13T08:46:15.050Z,85.54
2018-04-13T08:47:15.067Z,86.02
2018-04-13T08:48:15.118Z,85.45
2018-04-13T08:49:15.222Z,85.83
2018-04-13T08:50:15.179Z,85.06
2018-04-13T08:51:15.134Z,84.97
2018-04-13T08:52:15.154Z,83.63
2018-04-13T08:53:15.168Z,83.92
2018-04-13T08:54:15.192Z,84.64
2018-04-13T08:55:15.204Z,84.92
2018-04-13T08:56:15.223Z,84.92
2018-04-13T08:57:15.237Z,84.83
2018-04-13T08:58:15.254Z,84.68
2018-04-13T08:59:15.271Z,84.11
2018-04-13T09:00:15.662Z,84.26
2018-04-13T09:01:15.338Z,83.72
2018-04-13T09:02:15.322Z,83.92
2018-04-13T09:03:15.342Z,84.11
2018-04-13T09:04:15.356Z,83.05
2018-04-13T09:05:15.372Z,83.25
2018-04-13T09:06:15.389Z,83.25
2018-04-13T09:07:15.407Z,83.15
2018-04-13T09:08:15.424Z,84.01
2018-04-13T09:09:15.443Z,82.48
2018-04-13T09:10:15.458Z,82.57
2018-04-13T09:12:15.494Z,82.48
2018-04-13T09:13:15.529Z,81.43
2018-04-13T09:14:15.574Z,80.76
2018-04-13T09:15:15.547Z,81.04
2018-04-13T09:16:15.563Z,81.04
2018-04-13T09:17:15.581Z,80.56
2018-04-13T09:18:15.596Z,81.71
2018-04-13T09:19:15.616Z,79.13
2018-04-13T09:20:15.630Z,78.78
2018-04-13T09:21:15.647Z,77.73
2018-04-13T09:22:15.669Z,78.20
2018-04-13T09:23:15.683Z,77.53
2018-04-13T09:24:15.702Z,75.71
2018-04-13T09:25:15.716Z,75.52
2018-04-13T09:26:15.735Z,73.70
2018-04-13T09:27:15.756Z,73.22
2018-04-13T09:28:15.773Z,73.80
2018-04-13T09:29:15.785Z,72.64
2018-04-13T09:30:15.804Z,72.59
2018-04-13T09:31:15.822Z,72.20
2018-04-13T09:32:15.838Z,72.68
2018-04-13T09:33:16.307Z,71.72
2018-04-13T09:34:15.872Z,71.44
2018-04-13T09:35:15.898Z,71.82
2018-04-13T09:36:16.738Z,71.44
2018-04-13T09:37:15.924Z,71.25
2018-04-13T09:38:15.950Z,71.05
2018-04-13T09:39:16.162Z,71.53
2018-04-13T09:40:15.978Z,71.34
2018-04-13T09:41:15.996Z,71.72
2018-04-13T09:42:16.014Z,72.01
2018-04-13T09:43:16.032Z,71.69
2018-04-13T09:44:16.047Z,71.31
2018-04-13T09:45:16.064Z,71.31
2018-04-13T09:46:16.086Z,71.31
2018-04-13T09:47:16.100Z,72.01
2018-04-13T09:48:16.117Z,72.11
2018-04-13T09:49:16.134Z,71.82
2018-04-13T09:50:16.152Z,71.05
2018-04-13T09:51:16.170Z,70.48
2018-04-13T09:52:16.189Z,70.32
2018-04-13T09:53:16.207Z,69.93
2018-04-13T09:54:16.221Z,69.46
2018-04-13T09:55:16.240Z,69.07
2018-04-13T09:56:16.257Z,69.07
2018-04-13T09:57:16.503Z,68.98
2018-04-13T09:58:16.293Z,69.17
2018-04-13T09:59:16.311Z,69.46
2018-04-13T10:00:16.328Z,69.17
2018-04-13T10:01:16.345Z,69.46
2018-04-13T10:02:16.362Z,69.17
2018-04-13T10:03:16.442Z,69.74
2018-04-13T10:04:18.528Z,69.56
2018-04-13T10:05:16.416Z,69.17
2018-04-13T10:06:16.436Z,68.91
2018-04-13T10:07:16.474Z,68.53
2018-04-13T10:08:16.471Z,67.57
2018-04-13T10:09:16.497Z,67.76
2018-04-13T10:10:16.505Z,66.80
2018-04-13T10:11:16.527Z,67.76
2018-04-13T10:12:16.549Z,67.47
2018-04-13T10:13:16.562Z,67.76
2018-04-13T10:14:16.588Z,67.86
2018-04-13T10:15:16.596Z,67.83
2018-04-13T10:16:16.617Z,68.02
2018-04-13T10:17:16.634Z,68.59
2018-04-13T10:18:16.650Z,69.46
2018-04-13T10:19:16.672Z,67.83
2018-04-13T10:20:16.690Z,67.63
2018-04-13T10:21:16.708Z,67.54
2018-04-13T10:22:16.722Z,67.96
2018-04-13T10:23:16.742Z,67.47
2018-04-13T10:24:16.757Z,67.44
2018-04-13T10:25:16.779Z,66.86
2018-04-13T10:26:16.796Z,67.06
2018-04-13T10:27:16.816Z,66.29
2018-04-13T10:28:16.831Z,66.67
2018-04-13T10:29:16.848Z,67.16
2018-04-13T10:30:16.869Z,66.39
2018-04-13T10:31:16.882Z,67.57
2018-04-13T10:32:16.904Z,66.23
2018-04-13T10:33:16.921Z,66.80
2018-04-13T10:34:16.944Z,66.03
2018-04-13T10:35:16.955Z,66.23
2018-04-13T10:36:16.975Z,66.33
2018-04-13T10:37:16.993Z,66.00
2018-04-13T10:38:17.011Z,66.49
2018-04-13T10:39:17.030Z,66.86
2018-04-13T10:40:17.053Z,66.96
2018-04-13T10:41:17.061Z,66.61
2018-04-13T10:42:17.080Z,66.23
2018-04-13T10:43:17.117Z,65.75
2018-04-13T10:44:17.666Z,65.27
2018-04-13T10:45:17.134Z,65.84
2018-04-13T10:46:17.152Z,65.65
2018-04-13T10:47:17.171Z,65.84
2018-04-13T10:48:17.190Z,66.13
2018-04-13T10:49:17.512Z,66.23
2018-04-13T10:50:17.229Z,65.75
2018-04-13T10:51:17.244Z,66.33
2018-04-13T10:52:17.260Z,66.23
2018-04-13T10:53:17.282Z,66.03
2018-04-13T10:54:17.298Z,65.65
2018-04-13T10:55:17.314Z,66.71
2018-04-13T10:56:17.338Z,65.94
2018-04-13T10:57:17.453Z,66.23
2018-04-13T10:58:17.372Z,66.03
2018-04-13T10:59:17.389Z,65.56
2018-04-13T11:00:17.406Z,64.50
2018-04-13T11:01:17.430Z,64.40
2018-04-13T11:02:17.441Z,64.50
2018-04-13T11:03:17.460Z,64.79
2018-04-13T11:04:17.487Z,63.73
2018-04-13T11:05:17.501Z,62.68
2018-04-13T11:06:17.519Z,63.16
2018-04-13T11:07:17.541Z,62.81
2018-04-13T11:08:17.831Z,62.81
2018-04-13T11:09:17.650Z,62.29
2018-04-13T11:10:18.211Z,62.29
2018-04-13T11:11:17.978Z,62.87
2018-04-13T11:12:17.621Z,62.39
2018-04-13T11:13:17.639Z,62.01
2018-04-13T11:14:17.662Z,62.01
2018-04-13T11:15:17.684Z,61.72
2018-04-13T11:16:17.843Z,62.29
2018-04-13T11:17:18.150Z,62.39
2018-04-13T11:19:17.741Z,63.06
2018-04-13T11:20:17.769Z,61.72
2018-04-13T11:21:18.133Z,62.29
2018-04-13T11:22:17.793Z,61.98
2018-04-13T11:23:17.913Z,62.48
2018-04-13T11:24:17.837Z,61.62
2018-04-13T11:25:17.846Z,61.91
2018-04-13T11:26:17.867Z,62.01
2018-04-13T11:27:17.882Z,61.62
2018-04-13T11:28:17.901Z,62.39
2018-04-13T11:29:17.920Z,62.19
2018-04-13T11:30:17.937Z,62.29
2018-04-13T11:31:17.960Z,61.27
2018-04-13T11:32:17.972Z,61.08
2018-04-13T11:33:17.996Z,61.27
2018-04-13T11:34:18.007Z,61.65
2018-04-13T11:35:18.031Z,61.84
2018-04-13T11:36:18.046Z,61.17
2018-04-13T11:37:18.071Z,60.88
2018-04-13T11:38:18.094Z,60.31
2018-04-13T11:39:18.097Z,60.60
2018-04-13T11:40:18.238Z,60.69
2018-04-13T11:41:18.253Z,60.02
2018-04-13T11:42:18.352Z,60.60
2018-04-13T11:43:18.169Z,60.11
2018-04-13T11:44:18.187Z,60.31
2018-04-13T11:45:18.203Z,60.40
2018-04-13T11:46:18.226Z,58.58
2018-04-13T11:47:18.241Z,58.67
2018-04-13T11:48:18.261Z,58.55
2018-04-13T11:49:18.280Z,59.51
2018-04-13T11:50:18.303Z,59.70
2018-04-13T11:51:18.313Z,59.22
2018-04-13T11:52:18.337Z,59.32
2018-04-13T11:53:18.349Z,59.80
2018-04-13T11:54:18.369Z,59.61
2018-04-13T11:55:18.384Z,59.99
2018-04-13T11:56:18.402Z,60.18
2018-04-13T11:57:18.419Z,60.57
2018-04-13T11:58:18.438Z,60.47
2018-04-13T11:59:18.459Z,60.66
2018-04-13T12:00:18.472Z,60.28
2018-04-13T12:01:18.490Z,60.75
2018-04-13T12:02:18.510Z,59.80
2018-04-13T12:03:18.525Z,59.70
2018-04-13T12:04:18.544Z,60.28
2018-04-13T12:05:18.561Z,60.95
2018-04-13T12:06:18.584Z,61.11
2018-04-13T12:07:18.596Z,61.11
2018-04-13T12:08:18.615Z,61.62
2018-04-13T12:09:18.635Z,61.30
2018-04-13T12:10:18.653Z,61.59
2018-04-13T12:11:18.669Z,62.16
2018-04-13T12:12:18.683Z,62.45
2018-04-13T12:13:18.702Z,62.45
2018-04-13T12:14:18.723Z,63.22
2018-04-13T12:15:18.750Z,62.45
2018-04-13T12:16:18.758Z,63.22
2018-04-13T12:17:18.770Z,62.84
2018-04-13T12:18:18.788Z,62.74
2018-04-13T12:19:18.805Z,63.09
2018-04-13T12:20:18.823Z,63.29
2018-04-13T12:21:18.839Z,63.29
2018-04-13T12:22:18.858Z,63.67
2018-04-13T12:23:18.875Z,63.86
2018-04-13T12:24:18.891Z,63.86
2018-04-13T12:25:18.907Z,63.86
2018-04-13T12:26:18.934Z,63.86
2018-04-13T12:27:18.956Z,63.57
2018-04-13T12:28:18.960Z,63.86
2018-04-13T12:29:18.975Z,64.25
2018-04-13T12:30:18.993Z,64.53
2018-04-13T12:31:19.051Z,64.50
2018-04-13T12:32:19.031Z,64.50
2018-04-13T12:33:19.044Z,64.72
2018-04-13T12:34:19.063Z,64.53
2018-04-13T12:35:19.076Z,65.26
2018-04-13T12:36:19.093Z,65.17
2018-04-13T12:37:19.109Z,65.46
2018-04-13T12:38:19.184Z,65.55
2018-04-13T12:39:19.147Z,65.36
2018-04-13T12:40:19.161Z,65.68
2018-04-13T12:41:19.176Z,65.39
2018-04-13T12:42:19.219Z,65.39
2018-04-13T12:43:19.209Z,65.59
2018-04-13T12:44:19.229Z,65.68
2018-04-13T12:45:19.243Z,65.78
2018-04-13T12:46:19.259Z,65.68
2018-04-13T12:47:19.280Z,65.78
2018-04-13T12:48:19.292Z,66.16
2018-04-13T12:49:19.473Z,66.06
2018-04-13T12:50:19.331Z,66.06
2018-04-13T12:51:19.343Z,65.88
2018-04-13T12:52:19.360Z,66.26
2018-04-13T12:53:19.402Z,66.26
2018-04-13T12:54:19.527Z,66.42